createdAt,value
2023-03-06T00:01:54.462Z,75.81
2023-03-06T00:04:26.100Z,75.39
2023-03-06T00:06:58.243Z,75.77
2023-03-06T00:09:30.166Z,75.56
2023-03-06T00:12:03.413Z,75.55
2023-03-06T00:14:35.280Z,76.05
2023-03-06T00:17:07.233Z,75.75
2023-03-06T00:19:39.071Z,75.63
2023-03-06T00:22:13.770Z,75.58
2023-03-06T00:24:46.411Z,75.46
2023-03-06T00:27:19.378Z,75.80
2023-03-06T00:29:55.059Z,75.85
2023-03-06T00:32:27.986Z,75.61
2023-03-06T00:35:00.172Z,76.33
2023-03-06T00:37:32.030Z,76.12
2023-03-06T00:40:05.864Z,75.71
2023-03-06T00:42:39.639Z,75.90
2023-03-06T00:45:13.946Z,75.89
2023-03-06T00:47:46.313Z,75.59
2023-03-06T00:50:16.740Z,76.16
2023-03-06T00:52:49.032Z,76.11
2023-03-06T00:55:20.792Z,75.82
2023-03-06T00:57:53.734Z,76.61
2023-03-06T01:00:26.454Z,75.81
2023-03-06T01:02:58.387Z,76.32
2023-03-06T01:05:30.513Z,75.67
2023-03-06T01:08:02.150Z,76.21
2023-03-06T01:10:34.700Z,76.18
2023-03-06T01:13:11.950Z,76.17
2023-03-06T01:15:44.474Z,76.24
2023-03-06T01:18:16.353Z,76.18
2023-03-06T01:20:48.234Z,76.50
2023-03-06T01:23:20.108Z,76.54
2023-03-06T01:25:52.252Z,76.53
2023-03-06T01:28:25.317Z,76.94
2023-03-06T01:30:58.696Z,76.54
2023-03-06T01:33:30.593Z,77.42
2023-03-06T01:36:04.775Z,76.77
2023-03-06T01:38:37.978Z,76.63
2023-03-06T01:41:15.526Z,76.89
2023-03-06T01:43:50.414Z,76.39
2023-03-06T01:46:42.058Z,76.73
2023-03-06T01:49:22.110Z,77.08
2023-03-06T01:52:01.105Z,77.14
2023-03-06T01:54:40.436Z,77.27
2023-03-06T01:57:20.142Z,77.41
2023-03-06T01:59:59.656Z,77.27
2023-03-06T02:02:31.865Z,77.59
2023-03-06T02:05:06.906Z,77.37
2023-03-06T02:07:39.838Z,77.95
2023-03-06T02:10:14.102Z,77.20
2023-03-06T02:12:46.728Z,77.88
2023-03-06T02:15:24.775Z,77.64
2023-03-06T02:17:59.206Z,77.67
2023-03-06T02:20:40.523Z,78.20
2023-03-06T02:23:25.008Z,77.84
2023-03-06T02:26:00.770Z,78.01
2023-03-06T02:28:32.644Z,77.92
2023-03-06T02:31:04.605Z,77.84
2023-03-06T02:33:37.136Z,77.80
2023-03-06T02:36:15.041Z,78.14
2023-03-06T02:38:52.106Z,78.14
2023-03-06T02:43:58.101Z,77.43
2023-03-06T02:46:31.393Z,78.08
2023-03-06T02:49:04.399Z,78.53
2023-03-06T02:51:35.976Z,78.36
2023-03-06T02:54:07.969Z,78.43
2023-03-06T02:56:40.907Z,78.30
2023-03-06T02:59:13.206Z,78.27
2023-03-06T03:01:44.840Z,78.09
2023-03-06T03:04:16.870Z,78.10
2023-03-06T03:06:51.258Z,78.21
2023-03-06T03:09:23.136Z,78.69
2023-03-06T03:11:56.108Z,78.00
2023-03-06T03:14:29.614Z,78.35
2023-03-06T03:17:01.612Z,78.04
2023-03-06T03:19:33.508Z,78.95
2023-03-06T03:22:05.420Z,78.08
2023-03-06T03:24:37.431Z,78.65
2023-03-06T03:27:10.859Z,78.61
2023-03-06T03:29:42.742Z,78.42
2023-03-06T03:32:14.470Z,78.60
2023-03-06T03:34:46.433Z,78.38
2023-03-06T03:37:19.854Z,78.42
2023-03-06T03:39:51.666Z,78.71
2023-03-06T03:42:24.634Z,78.62
2023-03-06T03:44:56.797Z,78.81
2023-03-06T03:47:28.979Z,78.57
2023-03-06T03:50:00.839Z,78.24
2023-03-06T03:52:32.746Z,78.43
2023-03-06T03:55:04.988Z,78.46
2023-03-06T03:57:39.163Z,78.21
2023-03-06T04:00:16.258Z,78.12
2023-03-06T04:02:48.732Z,78.41
2023-03-06T04:05:21.152Z,78.39
2023-03-06T04:07:53.049Z,78.77
2023-03-06T04:10:25.081Z,78.85
2023-03-06T04:12:58.091Z,79.03
2023-03-06T04:15:30.010Z,78.97
2023-03-06T04:18:01.919Z,78.77
2023-03-06T04:20:33.918Z,79.12
2023-03-06T04:23:05.775Z,79.03
2023-03-06T04:25:37.703Z,78.86
2023-03-06T04:28:11.988Z,79.13
2023-03-06T04:30:44.152Z,78.91
2023-03-06T04:33:15.764Z,78.77
2023-03-06T04:35:47.706Z,78.97
2023-03-06T04:38:19.347Z,79.59
2023-03-06T04:40:51.096Z,80.12
2023-03-06T04:43:24.339Z,80.83
2023-03-06T04:45:56.230Z,80.62
2023-03-06T04:48:28.192Z,81.30
2023-03-06T04:51:00.083Z,81.16
2023-03-06T04:53:32.764Z,81.00
2023-03-06T04:56:04.526Z,80.75
2023-03-06T04:58:37.958Z,81.46
2023-03-06T05:01:11.919Z,81.78
2023-03-06T05:03:43.525Z,82.61
2023-03-06T05:06:15.429Z,82.38
2023-03-06T05:08:47.270Z,82.55
2023-03-06T05:11:19.145Z,82.92
2023-03-06T05:13:52.560Z,82.70
2023-03-06T05:16:24.606Z,83.26
2023-03-06T05:18:56.572Z,83.62
2023-03-06T05:21:28.427Z,83.92
2023-03-06T05:24:00.354Z,83.86
2023-03-06T05:26:32.438Z,83.92
2023-03-06T05:29:06.554Z,84.26
2023-03-06T05:31:38.194Z,84.17
2023-03-06T05:34:10.664Z,84.73
2023-03-06T05:36:42.388Z,84.04
2023-03-06T05:39:14.437Z,84.58
2023-03-06T05:41:46.231Z,83.97
2023-03-06T05:44:19.377Z,83.90
2023-03-06T05:46:52.270Z,84.65
2023-03-06T05:49:24.238Z,84.20
2023-03-06T05:51:56.050Z,84.18
2023-03-06T05:54:27.814Z,84.24
2023-03-06T05:56:59.920Z,83.75
2023-03-06T05:59:33.690Z,84.19
2023-03-06T06:02:05.853Z,84.01
2023-03-06T06:04:37.974Z,84.31
2023-03-06T06:07:13.612Z,84.61
2023-03-06T06:09:46.254Z,83.92
2023-03-06T06:12:18.684Z,84.38
2023-03-06T06:14:51.949Z,84.34
2023-03-06T06:17:23.802Z,84.36
2023-03-06T06:19:56.000Z,84.32
2023-03-06T06:22:28.075Z,84.33
2023-03-06T06:24:59.831Z,84.67
2023-03-06T06:27:31.787Z,85.20
2023-03-06T06:30:04.899Z,84.94
2023-03-06T06:32:36.938Z,84.69
2023-03-06T06:35:10.409Z,84.69
2023-03-06T06:37:44.719Z,85.34
2023-03-06T06:40:29.823Z,85.21
2023-03-06T06:43:07.874Z,85.23
2023-03-06T06:45:42.866Z,85.63
2023-03-06T06:48:21.285Z,85.38
2023-03-06T06:50:59.136Z,84.90
2023-03-06T06:56:27.957Z,85.22
2023-03-06T06:59:15.695Z,85.50
2023-03-06T07:01:55.166Z,85.50
2023-03-06T07:04:37.206Z,84.94
2023-03-06T07:07:11.271Z,84.96
2023-03-06T07:09:43.267Z,84.93
2023-03-06T07:12:15.208Z,84.69
2023-03-06T07:14:48.364Z,84.62
2023-03-06T07:17:21.370Z,84.81
2023-03-06T07:19:53.277Z,84.27
2023-03-06T07:22:25.194Z,83.76
2023-03-06T07:24:57.015Z,84.15
2023-03-06T07:27:30.272Z,84.83
2023-03-06T07:30:02.278Z,84.24
2023-03-06T07:32:35.321Z,83.53
2023-03-06T07:35:19.849Z,84.39
2023-03-06T07:37:52.791Z,84.61
2023-03-06T07:40:25.737Z,84.60
2023-03-06T07:43:12.934Z,84.68
2023-03-06T07:45:56.202Z,85.16
2023-03-06T07:48:29.682Z,84.82
2023-03-06T07:51:03.629Z,84.95
2023-03-06T07:53:36.261Z,85.06
2023-03-06T07:56:11.146Z,84.68
2023-03-06T07:58:46.033Z,84.72
2023-03-06T08:01:20.889Z,85.00
2023-03-06T08:03:55.173Z,84.50
2023-03-06T08:06:29.699Z,84.27
2023-03-06T08:09:02.671Z,85.52
2023-03-06T08:11:34.961Z,84.90
2023-03-06T08:14:06.796Z,85.30
2023-03-06T08:16:38.795Z,84.83
2023-03-06T08:19:13.201Z,85.72
2023-03-06T08:21:45.161Z,85.74
2023-03-06T08:24:19.455Z,85.80
2023-03-06T08:26:51.066Z,85.93
2023-03-06T08:29:22.936Z,85.33
2023-03-06T08:31:54.880Z,85.28
2023-03-06T08:34:29.188Z,85.77
2023-03-06T08:37:01.061Z,85.43
2023-03-06T08:39:32.901Z,85.58
2023-03-06T08:42:04.805Z,85.47
2023-03-06T08:44:36.762Z,85.38
2023-03-06T08:47:09.123Z,85.19
2023-03-06T08:49:42.094Z,84.77
2023-03-06T08:52:14.738Z,85.24
2023-03-06T08:54:46.612Z,85.07
2023-03-06T08:57:18.449Z,85.92
2023-03-06T08:59:50.374Z,85.28
2023-03-06T09:02:22.558Z,85.04
2023-03-06T09:04:55.734Z,85.79
2023-03-06T09:07:27.648Z,85.50
2023-03-06T09:10:02.175Z,85.50
2023-03-06T09:12:43.894Z,85.57
2023-03-06T09:15:23.743Z,85.99
2023-03-06T09:17:55.649Z,86.09
2023-03-06T09:20:28.935Z,85.88
2023-03-06T09:23:00.882Z,85.65
2023-03-06T09:25:32.841Z,85.45
2023-03-06T09:28:11.222Z,85.67
2023-03-06T09:30:45.338Z,85.90
2023-03-06T09:33:18.532Z,85.22
2023-03-06T09:35:55.642Z,86.03
2023-03-06T09:38:29.967Z,85.59
2023-03-06T09:41:12.916Z,85.25
2023-03-06T09:43:49.093Z,85.37
2023-03-06T09:46:30.693Z,86.15
2023-03-06T09:49:17.456Z,85.99
2023-03-06T09:52:01.297Z,85.91
2023-03-06T09:54:46.028Z,86.58
2023-03-06T09:57:27.718Z,86.23
2023-03-06T10:00:06.317Z,86.16
2023-03-06T10:02:46.557Z,86.22
2023-03-06T10:05:24.137Z,85.94
2023-03-06T10:08:06.396Z,85.54
2023-03-06T10:10:47.997Z,86.48
2023-03-06T10:13:31.562Z,86.39
2023-03-06T10:16:11.185Z,85.91
2023-03-06T10:18:43.764Z,86.17
2023-03-06T10:21:34.550Z,85.96
2023-03-06T10:24:21.072Z,85.91
2023-03-06T10:27:05.510Z,86.00
2023-03-06T10:30:01.543Z,85.84
2023-03-06T10:32:49.150Z,86.19
2023-03-06T10:35:30.393Z,86.36
2023-03-06T10:38:14.113Z,86.20
2023-03-06T10:40:55.778Z,86.68
2023-03-06T10:43:28.460Z,86.75
2023-03-06T10:46:00.581Z,85.68
2023-03-06T10:48:36.067Z,85.94
2023-03-06T10:51:21.061Z,85.99
2023-03-06T10:53:56.293Z,86.64
2023-03-06T10:56:33.175Z,85.80
2023-03-06T10:59:09.224Z,86.24
2023-03-06T11:01:43.184Z,85.81
2023-03-06T11:04:26.136Z,86.05
2023-03-06T11:07:21.267Z,86.69
2023-03-06T11:10:06.335Z,86.40
2023-03-06T11:12:41.674Z,86.57
2023-03-06T11:15:25.694Z,86.36
2023-03-06T11:18:02.895Z,86.01
2023-03-06T11:20:51.538Z,86.03
2023-03-06T11:23:36.185Z,85.28
2023-03-06T11:26:31.734Z,84.54
2023-03-06T11:29:27.073Z,83.87
2023-03-06T11:32:08.324Z,84.13
2023-03-06T11:34:49.931Z,84.96
2023-03-06T11:37:34.676Z,84.57
2023-03-06T11:40:18.528Z,85.36
2023-03-06T11:43:00.190Z,84.04
2023-03-06T11:45:44.111Z,84.23
2023-03-06T11:48:26.270Z,84.88
2023-03-06T11:51:15.829Z,82.86
2023-03-06T11:53:50.425Z,82.87
2023-03-06T11:56:39.609Z,84.52
2023-03-06T11:59:36.778Z,84.25
2023-03-06T12:02:30.388Z,84.17
2023-03-06T12:05:24.227Z,83.35
2023-03-06T12:08:10.775Z,83.32
2023-03-06T12:10:52.115Z,84.41
2023-03-06T12:13:41.324Z,83.11
2023-03-06T12:16:48.279Z,82.92
2023-03-06T12:19:49.840Z,84.31
2023-03-06T12:22:36.397Z,82.98
2023-03-06T12:25:26.879Z,82.32
2023-03-06T12:28:25.978Z,80.88
2023-03-06T12:31:31.519Z,79.43
2023-03-06T12:34:19.085Z,76.98
2023-03-06T12:37:02.377Z,78.99
2023-03-06T12:39:54.365Z,79.67
2023-03-06T12:42:43.326Z,78.04
2023-03-06T12:45:28.555Z,77.35
2023-03-06T12:48:02.474Z,77.64
2023-03-06T12:50:37.150Z,76.41
2023-03-06T12:53:27.278Z,78.27
2023-03-06T12:56:02.511Z,75.24
2023-03-06T12:58:54.820Z,76.13
2023-03-06T13:01:55.488Z,75.33
2023-03-06T13:05:01.264Z,73.52
2023-03-06T13:07:53.982Z,73.51
2023-03-06T13:10:33.599Z,71.98
2023-03-06T13:13:26.109Z,69.32
2023-03-06T13:16:23.098Z,66.64
2023-03-06T13:19:04.915Z,69.55
2023-03-06T13:22:16.451Z,66.94
2023-03-06T13:24:49.479Z,65.58
2023-03-06T13:28:00.910Z,66.72
2023-03-06T13:30:48.119Z,67.26
2023-03-06T13:33:58.739Z,67.43
2023-03-06T13:36:39.419Z,68.88
2023-03-06T13:39:13.994Z,65.09
2023-03-06T13:41:57.085Z,65.29
2023-03-06T13:44:56.021Z,66.69
2023-03-06T13:48:19.512Z,66.68
2023-03-06T13:50:48.829Z,63.88
2023-03-06T13:54:01.736Z,64.09
2023-03-06T13:57:18.715Z,64.54
2023-03-06T14:00:26.722Z,60.50
2023-03-06T14:03:52.089Z,54.13
2023-03-06T14:07:05.555Z,55.59
2023-03-06T14:09:43.594Z,58.27
2023-03-06T14:12:24.959Z,57.01
2023-03-06T14:15:04.826Z,59.11
2023-03-06T14:17:39.123Z,52.73
2023-03-06T14:20:21.992Z,56.45
2023-03-06T14:23:14.090Z,56.01
2023-03-06T14:25:54.975Z,53.67
2023-03-06T14:28:30.030Z,55.09
2023-03-06T14:31:06.886Z,52.58
2023-03-06T14:33:45.874Z,54.23
2023-03-06T14:36:21.832Z,56.82
2023-03-06T14:38:57.992Z,53.97
2023-03-06T14:41:35.322Z,54.39
2023-03-06T14:44:17.867Z,53.04
2023-03-06T14:46:52.763Z,54.46
2023-03-06T14:49:27.231Z,51.69
2023-03-06T14:52:01.787Z,53.59
2023-03-06T14:54:37.593Z,52.07
2023-03-06T14:57:20.014Z,51.26
2023-03-06T14:59:59.454Z,52.61
2023-03-06T15:02:34.059Z,51.42
2023-03-06T15:05:16.125Z,51.59
2023-03-06T15:07:48.109Z,52.19
2023-03-06T15:10:29.311Z,53.13
2023-03-06T15:13:19.725Z,54.20
2023-03-06T15:16:01.360Z,55.05
2023-03-06T15:18:38.875Z,56.12
2023-03-06T15:21:11.360Z,56.49
2023-03-06T15:23:46.240Z,55.05
2023-03-06T15:26:36.932Z,55.48
2023-03-06T15:29:24.732Z,55.52
2023-03-06T15:32:14.026Z,54.85
2023-03-06T15:34:47.144Z,55.41
2023-03-06T15:37:29.773Z,56.00
2023-03-06T15:40:22.296Z,54.78
2023-03-06T15:42:54.754Z,55.09
2023-03-06T15:45:32.003Z,55.69
2023-03-06T15:48:15.615Z,56.25
2023-03-06T15:50:48.763Z,55.40
2023-03-06T15:53:20.762Z,56.02
2023-03-06T15:55:54.001Z,54.92
2023-03-06T15:58:29.607Z,55.51
2023-03-06T16:01:01.264Z,55.34
2023-03-06T16:03:33.250Z,55.67
2023-03-06T16:06:06.296Z,54.14
2023-03-06T16:08:38.333Z,54.54
2023-03-06T16:11:10.203Z,54.94
2023-03-06T16:13:42.123Z,54.62
2023-03-06T16:16:22.236Z,54.12
2023-03-06T16:18:54.201Z,55.30
2023-03-06T16:21:28.035Z,55.27
2023-03-06T16:24:00.380Z,55.57
2023-03-06T16:26:36.728Z,55.46
2023-03-06T16:29:11.041Z,55.88
2023-03-06T16:31:42.619Z,55.91
2023-03-06T16:34:14.534Z,56.67
2023-03-06T16:36:48.573Z,58.63
2023-03-06T16:39:23.495Z,58.00
2023-03-06T16:41:58.123Z,57.78
2023-03-06T16:44:31.393Z,59.80
2023-03-06T16:47:06.203Z,58.50
2023-03-06T16:49:38.841Z,59.57
2023-03-06T16:52:14.611Z,59.31
2023-03-06T16:54:46.412Z,60.55
2023-03-06T16:57:19.654Z,60.10
2023-03-06T16:59:51.537Z,60.94
2023-03-06T17:02:23.430Z,60.58
2023-03-06T17:04:55.176Z,62.36
2023-03-06T17:07:29.438Z,61.70
2023-03-06T17:10:01.397Z,62.55
2023-03-06T17:12:33.088Z,62.03
2023-03-06T17:15:08.211Z,61.94
2023-03-06T17:17:40.217Z,62.74
2023-03-06T17:20:16.040Z,62.50
2023-03-06T17:22:49.111Z,62.78
2023-03-06T17:25:21.271Z,63.98
2023-03-06T17:27:52.894Z,62.49
2023-03-06T17:30:24.914Z,63.36
2023-03-06T17:32:58.199Z,63.83
2023-03-06T17:35:32.849Z,64.37
2023-03-06T17:38:06.076Z,63.81
2023-03-06T17:40:39.314Z,64.70
2023-03-06T17:43:11.209Z,65.50
2023-03-06T17:45:43.164Z,65.26
2023-03-06T17:48:15.292Z,65.45
2023-03-06T17:50:56.371Z,66.26
2023-03-06T17:53:32.623Z,65.84
2023-03-06T17:56:06.126Z,66.60
2023-03-06T17:58:38.113Z,65.95
2023-03-06T18:01:18.116Z,65.97
2023-03-06T18:03:52.694Z,65.92
2023-03-06T18:06:27.473Z,65.69
2023-03-06T18:09:01.929Z,65.82
2023-03-06T18:11:34.192Z,66.17
2023-03-06T18:14:06.198Z,66.24
2023-03-06T18:16:38.365Z,66.93
2023-03-06T18:19:10.882Z,67.82
2023-03-06T18:21:43.102Z,67.95
2023-03-06T18:24:16.876Z,67.64
2023-03-06T18:26:48.757Z,68.08
2023-03-06T18:29:20.652Z,68.22
2023-03-06T18:31:53.143Z,68.37
2023-03-06T18:34:26.092Z,68.52
2023-03-06T18:36:57.776Z,68.63
2023-03-06T18:39:30.801Z,68.36
2023-03-06T18:42:03.154Z,68.79
2023-03-06T18:44:35.002Z,68.79
2023-03-06T18:47:07.756Z,69.04
2023-03-06T18:49:40.556Z,69.20
2023-03-06T18:52:13.340Z,69.17
2023-03-06T18:54:49.900Z,70.10
2023-03-06T18:57:21.711Z,69.68
2023-03-06T18:59:55.222Z,69.46
2023-03-06T19:02:27.299Z,69.29
2023-03-06T19:04:59.244Z,69.51
2023-03-06T19:07:31.130Z,70.41
2023-03-06T19:10:04.582Z,70.62
2023-03-06T19:12:41.518Z,70.68
2023-03-06T19:15:14.101Z,71.07
2023-03-06T19:17:49.346Z,70.94
2023-03-06T19:20:21.314Z,70.81
2023-03-06T19:22:54.935Z,71.45
2023-03-06T19:25:28.368Z,71.15
2023-03-06T19:28:00.629Z,71.69
2023-03-06T19:30:32.728Z,71.85
2023-03-06T19:33:04.652Z,71.47
2023-03-06T19:35:38.780Z,72.05
2023-03-06T19:38:11.040Z,72.16
2023-03-06T19:40:51.640Z,71.89
2023-03-06T19:43:24.119Z,72.03
2023-03-06T19:45:56.395Z,72.34
2023-03-06T19:48:28.469Z,72.89
2023-03-06T19:51:03.582Z,72.90
2023-03-06T19:53:36.254Z,72.97
2023-03-06T19:56:12.936Z,73.06
2023-03-06T19:58:44.977Z,73.28
2023-03-06T20:01:20.296Z,73.54
2023-03-06T20:03:56.129Z,73.88
2023-03-06T20:06:30.230Z,73.86
2023-03-06T20:09:04.820Z,73.85
2023-03-06T20:11:38.306Z,74.12
2023-03-06T20:14:13.106Z,73.99
2023-03-06T20:16:46.075Z,74.49
2023-03-06T20:19:19.057Z,75.09
2023-03-06T20:21:51.110Z,75.37
2023-03-06T20:24:23.069Z,75.23
2023-03-06T20:26:57.698Z,75.43
2023-03-06T20:29:29.472Z,75.00
2023-03-06T20:32:01.956Z,75.72
2023-03-06T20:34:33.701Z,75.85
2023-03-06T20:37:05.737Z,75.76
2023-03-06T20:39:38.517Z,75.91
2023-03-06T20:42:14.281Z,75.64
2023-03-06T20:44:46.280Z,76.25
2023-03-06T20:47:18.369Z,76.19
2023-03-06T20:49:50.059Z,76.53
2023-03-06T20:52:22.076Z,76.47
2023-03-06T20:54:53.858Z,76.65
2023-03-06T20:57:27.121Z,76.61
2023-03-06T20:59:59.176Z,77.20
2023-03-06T21:02:31.015Z,77.27
2023-03-06T21:05:03.083Z,77.12
2023-03-06T21:07:35.133Z,77.25
2023-03-06T21:10:08.164Z,77.39
2023-03-06T21:12:42.332Z,77.35
2023-03-06T21:15:15.052Z,77.40
2023-03-06T21:17:47.034Z,77.25
2023-03-06T21:20:19.140Z,78.01
2023-03-06T21:22:51.976Z,77.54
2023-03-06T21:25:23.726Z,77.70
2023-03-06T21:27:58.772Z,78.27
2023-03-06T21:30:30.981Z,78.05
2023-03-06T21:33:03.881Z,78.33
2023-03-06T21:35:40.361Z,78.26
2023-03-06T21:38:14.073Z,78.22
2023-03-06T21:40:46.065Z,78.77
2023-03-06T21:43:21.004Z,78.53
2023-03-06T21:45:57.406Z,79.02
2023-03-06T21:48:30.095Z,78.82
2023-03-06T21:51:11.718Z,78.84
2023-03-06T21:53:44.755Z,79.20
2023-03-06T21:56:28.918Z,78.97
2023-03-06T21:59:02.630Z,78.86
2023-03-06T22:01:35.920Z,79.27
2023-03-06T22:04:08.670Z,79.18
2023-03-06T22:06:41.943Z,79.14
2023-03-06T22:09:17.302Z,79.24
2023-03-06T22:11:49.270Z,79.67
2023-03-06T22:14:22.577Z,79.41
2023-03-06T22:16:56.752Z,79.28
2023-03-06T22:19:29.255Z,79.31
2023-03-06T22:22:01.126Z,79.69
2023-03-06T22:24:32.847Z,79.13
2023-03-06T22:27:04.966Z,79.70
2023-03-06T22:29:38.417Z,79.68
2023-03-06T22:32:12.030Z,79.45
2023-03-06T22:34:44.247Z,79.10
2023-03-06T22:37:16.108Z,80.05
2023-03-06T22:39:48.484Z,80.26
2023-03-06T22:42:20.370Z,80.01
2023-03-06T22:44:53.388Z,79.85
2023-03-06T22:47:25.326Z,80.46
2023-03-06T22:49:57.120Z,79.89
2023-03-06T22:52:29.103Z,80.15
2023-03-06T22:55:01.032Z,80.42
2023-03-06T22:57:32.930Z,79.99
2023-03-06T23:00:07.795Z,80.31
2023-03-06T23:02:39.945Z,80.28
2023-03-06T23:05:12.821Z,80.44
2023-03-06T23:07:44.890Z,80.33
2023-03-06T23:10:16.504Z,80.02
2023-03-06T23:12:48.224Z,80.21
2023-03-06T23:15:21.262Z,80.07
2023-03-06T23:17:53.699Z,80.69
2023-03-06T23:20:25.613Z,80.28
2023-03-06T23:22:58.099Z,80.46
2023-03-06T23:25:30.073Z,80.45
2023-03-06T23:28:02.021Z,80.25
2023-03-06T23:30:35.057Z,80.42
2023-03-06T23:33:07.104Z,80.47
2023-03-06T23:35:39.973Z,80.26
2023-03-06T23:38:11.961Z,80.26
2023-03-06T23:40:44.906Z,80.09
2023-03-06T23:43:16.904Z,79.88
2023-03-06T23:45:59.697Z,79.27
2023-03-06T23:48:32.903Z,78.75
2023-03-06T23:51:09.280Z,78.44
2023-03-06T23:53:41.269Z,78.25
2023-03-06T23:56:15.337Z,78.23
2023-03-06T23:58:47.127Z,78.53
